sensor_id;sensor_type;location;lat;lon;timestamp;pressure;altitude;pressure_sealevel;temperature;humidity
28312;BME280;15572;48.810;9.148;2023-01-29T00:01:07;99258.28;;;-0.48;100.00
28312;BME280;15572;48.810;9.148;2023-01-29T00:06:05;99268.09;;;-0.49;100.00
28312;BME280;15572;48.810;9.148;2023-01-29T00:11:04;99262.78;;;-0.49;100.00
28312;BME280;15572;48.810;9.148;2023-01-29T00:16:02;99271.50;;;-0.47;100.00
28312;BME280;15572;48.810;9.148;2023-01-29T00:20:59;99262.56;;;-0.46;100.00
28312;BME280;15572;48.810;9.148;2023-01-29T00:25:58;99266.25;;;-0.48;100.00
28312;BME280;15572;48.810;9.148;2023-01-29T00:30:56;99268.09;;;-0.49;100.00
28312;BME280;15572;48.810;9.148;2023-01-29T00:35:52;99269.78;;;-0.48;100.00
28312;BME280;15572;48.810;9.148;2023-01-29T00:40:49;99262.88;;;-0.50;100.00
28312;BME280;15572;48.810;9.148;2023-01-29T00:46:04;99260.38;;;-0.53;100.00
28312;BME280;15572;48.810;9.148;2023-01-29T00:51:02;99265.72;;;-0.53;100.00
28312;BME280;15572;48.810;9.148;2023-01-29T00:55:58;99258.72;;;-0.54;100.00
28312;BME280;15572;48.810;9.148;2023-01-29T01:00:55;99260.59;;;-0.56;100.00
28312;BME280;15572;48.810;9.148;2023-01-29T01:06:03;99263.25;;;-0.56;100.00
28312;BME280;15572;48.810;9.148;2023-01-29T01:11:02;99261.47;;;-0.56;100.00
28312;BME280;15572;48.810;9.148;2023-01-29T01:15:59;99253.88;;;-0.62;100.00
28312;BME280;15572;48.810;9.148;2023-01-29T01:20:56;99261.31;;;-0.67;100.00
28312;BME280;15572;48.810;9.148;2023-01-29T01:25:55;99258.66;;;-0.67;100.00
28312;BME280;15572;48.810;9.148;2023-01-29T01:30:51;99251.72;;;-0.69;100.00
28312;BME280;15572;48.810;9.148;2023-01-29T01:35:48;99253.53;;;-0.70;100.00
28312;BME280;15572;48.810;9.148;2023-01-29T01:40:44;99257.47;;;-0.75;100.00
28312;BME280;15572;48.810;9.148;2023-01-29T01:45:43;99261.25;;;-0.79;100.00
28312;BME280;15572;48.810;9.148;2023-01-29T01:50:43;99245.28;;;-0.79;100.00
28312;BME280;15572;48.810;9.148;2023-01-29T01:55:44;99247.22;;;-0.81;100.00
28312;BME280;15572;48.810;9.148;2023-01-29T02:00:42;99253.13;;;-0.91;100.00
28312;BME280;15572;48.810;9.148;2023-01-29T02:05:40;99251.44;;;-0.92;100.00
28312;BME280;15572;48.810;9.148;2023-01-29T02:10:54;99248.78;;;-0.92;100.00
28312;BME280;15572;48.810;9.148;2023-01-29T02:15:52;99257.47;;;-0.90;100.00
28312;BME280;15572;48.810;9.148;2023-01-29T02:21:01;99259.28;;;-0.90;100.00
28312;BME280;15572;48.810;9.148;2023-01-29T02:26:14;99259.66;;;-0.82;100.00
28312;BME280;15572;48.810;9.148;2023-01-29T02:31:16;99264.22;;;-0.84;100.00
28312;BME280;15572;48.810;9.148;2023-01-29T02:36:21;99261.56;;;-0.84;100.00
28312;BME280;15572;48.810;9.148;2023-01-29T02:41:26;99257.59;;;-0.91;100.00
28312;BME280;15572;48.810;9.148;2023-01-29T02:46:29;99258.09;;;-0.99;100.00
28312;BME280;15572;48.810;9.148;2023-01-29T02:51:35;99260.66;;;-0.97;100.00
28312;BME280;15572;48.810;9.148;2023-01-29T02:56:35;99248.78;;;-0.92;100.00
28312;BME280;15572;48.810;9.148;2023-01-29T03:01:39;99251.44;;;-0.92;100.00
28312;BME280;15572;48.810;9.148;2023-01-29T03:06:41;99252.56;;;-0.96;100.00
28312;BME280;15572;48.810;9.148;2023-01-29T03:11:41;99258.09;;;-0.99;100.00
28312;BME280;15572;48.810;9.148;2023-01-29T03:16:45;99253.06;;;-1.03;100.00
28312;BME280;15572;48.810;9.148;2023-01-29T03:21:47;99249.56;;;-1.04;100.00
28312;BME280;15572;48.810;9.148;2023-01-29T03:26:45;99247.66;;;-1.02;100.00
28312;BME280;15572;48.810;9.148;2023-01-29T03:32:01;99253.81;;;-1.01;100.00
28312;BME280;15572;48.810;9.148;2023-01-29T03:37:03;99248.41;;;-1.00;100.00
28312;BME280;15572;48.810;9.148;2023-01-29T03:42:07;99245.56;;;-0.97;100.00
28312;BME280;15572;48.810;9.148;2023-01-29T03:47:13;99248.41;;;-1.00;100.00
28312;BME280;15572;48.810;9.148;2023-01-29T03:52:17;99246.03;;;-1.04;100.00
28312;BME280;15572;48.810;9.148;2023-01-29T03:57:20;99250.41;;;-1.03;100.00
28312;BME280;15572;48.810;9.148;2023-01-29T04:02:26;99255.91;;;-1.06;100.00
28312;BME280;15572;48.810;9.148;2023-01-29T04:07:26;99258.69;;;-1.08;100.00
28312;BME280;15572;48.810;9.148;2023-01-29T04:12:25;99261.22;;;-1.06;100.00
28312;BME280;15572;48.810;9.148;2023-01-29T04:17:29;99244.34;;;-1.05;100.00
28312;BME280;15572;48.810;9.148;2023-01-29T04:22:31;99251.66;;;-1.09;100.00
28312;BME280;15572;48.810;9.148;2023-01-29T04:27:34;99256.97;;;-1.09;100.00
28312;BME280;15572;48.810;9.148;2023-01-29T04:32:44;99262.47;;;-1.12;100.00
28312;BME280;15572;48.810;9.148;2023-01-29T04:37:55;99256.50;;;-1.15;100.00
28312;BME280;15572;48.810;9.148;2023-01-29T04:43:02;99253.19;;;-1.19;100.00
28312;BME280;15572;48.810;9.148;2023-01-29T04:48:08;99258.41;;;-1.17;100.00
28312;BME280;15572;48.810;9.148;2023-01-29T04:53:13;99253.00;;;-1.16;100.00
28312;BME280;15572;48.810;9.148;2023-01-29T04:58:13;99251.19;;;-1.15;100.00
28312;BME280;15572;48.810;9.148;2023-01-29T05:03:15;99257.38;;;-1.15;100.00
28312;BME280;15572;48.810;9.148;2023-01-29T05:08:14;99250.34;;;-1.16;100.00
28312;BME280;15572;48.810;9.148;2023-01-29T05:13:13;99262.69;;;-1.15;100.00
28312;BME280;15572;48.810;9.148;2023-01-29T05:18:10;99248.44;;;-1.14;100.00
28312;BME280;15572;48.810;9.148;2023-01-29T05:23:09;99249.19;;;-1.12;100.00
28312;BME280;15572;48.810;9.148;2023-01-29T05:28:10;99259.25;;;-1.17;100.00
28312;BME280;15572;48.810;9.148;2023-01-29T05:33:12;99271.91;;;-1.20;100.00
28312;BME280;15572;48.810;9.148;2023-01-29T05:38:11;99261.47;;;-1.23;100.00
28312;BME280;15572;48.810;9.148;2023-01-29T05:43:14;99254.63;;;-1.28;100.00
28312;BME280;15572;48.810;9.148;2023-01-29T05:48:10;99252.53;;;-1.22;100.00
28312;BME280;15572;48.810;9.148;2023-01-29T05:53:08;99223.59;;;-1.27;100.00
28312;BME280;15572;48.810;9.148;2023-01-29T05:58:05;99206.69;;;-1.26;100.00
28312;BME280;15572;48.810;9.148;2023-01-29T06:03:02;99218.09;;;-1.24;100.00
28312;BME280;15572;48.810;9.148;2023-01-29T06:07:58;99229.75;;;-1.27;100.00
28312;BME280;15572;48.810;9.148;2023-01-29T06:12:55;99229.84;;;-1.28;100.00
28312;BME280;15572;48.810;9.148;2023-01-29T06:17:53;99239.53;;;-1.27;100.00
28312;BME280;15572;48.810;9.148;2023-01-29T06:22:50;99233.38;;;-1.28;100.00
28312;BME280;15572;48.810;9.148;2023-01-29T06:27:49;99240.22;;;-1.23;100.00
28312;BME280;15572;48.810;9.148;2023-01-29T06:32:45;99236.13;;;-1.29;99.62
28312;BME280;15572;48.810;9.148;2023-01-29T06:37:43;99245.16;;;-1.32;100.00
28312;BME280;15572;48.810;9.148;2023-01-29T06:42:39;99243.63;;;-1.36;100.00
28312;BME280;15572;48.810;9.148;2023-01-29T06:47:36;99239.91;;;-1.33;100.00
28312;BME280;15572;48.810;9.148;2023-01-29T06:52:32;99239.09;;;-1.34;100.00
28312;BME280;15572;48.810;9.148;2023-01-29T06:57:30;99252.25;;;-1.32;100.00
28312;BME280;15572;48.810;9.148;2023-01-29T07:02:27;99256.53;;;-1.30;100.00
28312;BME280;15572;48.810;9.148;2023-01-29T07:07:23;99256.25;;;-1.25;100.00
28312;BME280;15572;48.810;9.148;2023-01-29T07:12:19;99251.09;;;-1.28;100.00
28312;BME280;15572;48.810;9.148;2023-01-29T07:17:17;99239.66;;;-1.29;100.00
28312;BME280;15572;48.810;9.148;2023-01-29T07:22:14;99252.16;;;-1.31;100.00
28312;BME280;15572;48.810;9.148;2023-01-29T07:27:11;99261.00;;;-1.30;100.00
28312;BME280;15572;48.810;9.148;2023-01-29T07:32:07;99271.63;;;-1.30;100.00
28312;BME280;15572;48.810;9.148;2023-01-29T07:37:05;99277.22;;;-1.20;100.00
28312;BME280;15572;48.810;9.148;2023-01-29T07:42:02;99275.41;;;-1.20;99.70
28312;BME280;15572;48.810;9.148;2023-01-29T07:46:58;99289.06;;;-1.12;99.78
28312;BME280;15572;48.810;9.148;2023-01-29T07:51:55;99282.97;;;-1.00;99.09
28312;BME280;15572;48.810;9.148;2023-01-29T07:56:53;99290.00;;;-0.99;99.22
28312;BME280;15572;48.810;9.148;2023-01-29T08:01:49;99284.69;;;-0.99;99.18
28312;BME280;15572;48.810;9.148;2023-01-29T08:06:46;99292.16;;;-0.91;99.24
28312;BME280;15572;48.810;9.148;2023-01-29T08:11:42;99287.66;;;-0.76;99.17
28312;BME280;15572;48.810;9.148;2023-01-29T08:16:40;99292.59;;;-0.70;99.19
28312;BME280;15572;48.810;9.148;2023-01-29T08:21:36;99294.47;;;-0.72;98.76
28312;BME280;15572;48.810;9.148;2023-01-29T08:26:33;99310.44;;;-0.72;98.79
28312;BME280;15572;48.810;9.148;2023-01-29T08:31:29;99312.06;;;-0.70;98.08
28312;BME280;15572;48.810;9.148;2023-01-29T08:36:27;99310.22;;;-0.69;97.91
28312;BME280;15572;48.810;9.148;2023-01-29T08:41:24;99312.34;;;-0.74;97.00
28312;BME280;15572;48.810;9.148;2023-01-29T08:46:20;99318.50;;;-0.74;97.36
28312;BME280;15572;48.810;9.148;2023-01-29T08:51:16;99325.63;;;-0.60;96.88
28312;BME280;15572;48.810;9.148;2023-01-29T08:56:14;99308.72;;;-0.59;96.87
28312;BME280;15572;48.810;9.148;2023-01-29T09:01:13;99310.06;;;-0.39;96.55
28312;BME280;15572;48.810;9.148;2023-01-29T09:06:11;99315.75;;;-0.19;96.29
28312;BME280;15572;48.810;9.148;2023-01-29T09:11:07;99317.06;;;0.01;96.37
28312;BME280;15572;48.810;9.148;2023-01-29T09:16:06;99330.19;;;0.17;95.53
28312;BME280;15572;48.810;9.148;2023-01-29T09:21:03;99329.47;;;0.15;95.30
28312;BME280;15572;48.810;9.148;2023-01-29T09:26:00;99323.81;;;0.19;94.53
28312;BME280;15572;48.810;9.148;2023-01-29T09:30:59;99327.34;;;0.20;94.33
28312;BME280;15572;48.810;9.148;2023-01-29T09:35:57;99333.75;;;0.30;94.25
28312;BME280;15572;48.810;9.148;2023-01-29T09:40:59;99328.97;;;0.35;94.29
28312;BME280;15572;48.810;9.148;2023-01-29T09:46:00;99313.63;;;0.51;93.86
28312;BME280;15572;48.810;9.148;2023-01-29T09:51:05;99300.72;;;0.58;90.66
28312;BME280;15572;48.810;9.148;2023-01-29T09:56:08;99285.25;;;0.50;90.07
28312;BME280;15572;48.810;9.148;2023-01-29T10:01:12;99269.53;;;0.83;89.32
28312;BME280;15572;48.810;9.148;2023-01-29T10:06:33;99260.06;;;1.16;86.93
28312;BME280;15572;48.810;9.148;2023-01-29T10:11:41;99251.06;;;1.53;85.73
28312;BME280;15572;48.810;9.148;2023-01-29T10:16:50;99250.53;;;1.48;81.31
28312;BME280;15572;48.810;9.148;2023-01-29T10:22:07;99237.75;;;1.64;81.79
28312;BME280;15572;48.810;9.148;2023-01-29T10:27:12;99244.25;;;1.84;81.73
28312;BME280;15572;48.810;9.148;2023-01-29T10:32:13;99263.59;;;1.99;81.33
28312;BME280;15572;48.810;9.148;2023-01-29T10:37:15;99252.53;;;2.03;80.91
28312;BME280;15572;48.810;9.148;2023-01-29T10:42:18;99257.88;;;2.03;80.23
28312;BME280;15572;48.810;9.148;2023-01-29T10:47:26;99264.44;;;1.99;81.40
28312;BME280;15572;48.810;9.148;2023-01-29T10:52:37;99258.75;;;2.04;80.88
28312;BME280;15572;48.810;9.148;2023-01-29T10:57:48;99247.22;;;2.15;81.16
28312;BME280;15572;48.810;9.148;2023-01-29T11:02:48;99248.56;;;2.09;81.87
28312;BME280;15572;48.810;9.148;2023-01-29T11:07:48;99251.13;;;2.10;80.35
28312;BME280;15572;48.810;9.148;2023-01-29T11:12:49;99255.28;;;1.80;75.28
28312;BME280;15572;48.810;9.148;2023-01-29T11:18:05;99247.97;;;1.71;76.57
28312;BME280;15572;48.810;9.148;2023-01-29T11:23:24;99235.44;;;1.60;78.46
28312;BME280;15572;48.810;9.148;2023-01-29T11:28:34;99226.56;;;1.59;79.16
28312;BME280;15572;48.810;9.148;2023-01-29T11:33:31;99208.34;;;1.53;79.05
28312;BME280;15572;48.810;9.148;2023-01-29T11:38:29;99214.66;;;1.28;78.27
28312;BME280;15572;48.810;9.148;2023-01-29T11:43:29;99197.72;;;1.41;78.62
28312;BME280;15572;48.810;9.148;2023-01-29T11:48:32;99204.31;;;1.48;79.09
28312;BME280;15572;48.810;9.148;2023-01-29T11:53:36;99209.19;;;1.54;78.07
28312;BME280;15572;48.810;9.148;2023-01-29T11:58:34;99210.16;;;1.53;78.76
28312;BME280;15572;48.810;9.148;2023-01-29T12:03:33;99189.56;;;1.55;78.89
28312;BME280;15572;48.810;9.148;2023-01-29T12:08:35;99176.22;;;1.55;79.06
28312;BME280;15572;48.810;9.148;2023-01-29T12:13:33;99159.59;;;1.62;79.37
28312;BME280;15572;48.810;9.148;2023-01-29T12:18:34;99147.97;;;1.75;78.72
28312;BME280;15572;48.810;9.148;2023-01-29T12:23:35;99146.03;;;1.88;77.70
28312;BME280;15572;48.810;9.148;2023-01-29T12:28:41;99123.25;;;1.95;76.40
28312;BME280;15572;48.810;9.148;2023-01-29T12:33:45;99107.47;;;2.03;76.44
28312;BME280;15572;48.810;9.148;2023-01-29T12:38:45;99097.63;;;2.15;75.49
28312;BME280;15572;48.810;9.148;2023-01-29T12:43:45;99093.59;;;2.31;75.73
28312;BME280;15572;48.810;9.148;2023-01-29T12:48:44;99084.22;;;2.48;72.79
28312;BME280;15572;48.810;9.148;2023-01-29T12:53:44;99073.88;;;2.54;73.58
28312;BME280;15572;48.810;9.148;2023-01-29T12:58:47;99071.81;;;2.90;72.46
28312;BME280;15572;48.810;9.148;2023-01-29T13:03:49;99066.50;;;2.79;71.90
28312;BME280;15572;48.810;9.148;2023-01-29T13:08:50;99064.53;;;2.49;71.92
28312;BME280;15572;48.810;9.148;2023-01-29T13:13:51;99056.38;;;2.62;73.02
28312;BME280;15572;48.810;9.148;2023-01-29T13:18:52;99045.63;;;2.73;73.14
28312;BME280;15572;48.810;9.148;2023-01-29T13:23:53;99040.34;;;3.14;72.89
28312;BME280;15572;48.810;9.148;2023-01-29T13:28:52;99035.59;;;3.38;70.03
28312;BME280;15572;48.810;9.148;2023-01-29T13:33:54;99049.78;;;3.80;69.81
28312;BME280;15572;48.810;9.148;2023-01-29T13:38:55;99052.47;;;3.60;66.66
28312;BME280;15572;48.810;9.148;2023-01-29T13:43:55;99049.53;;;3.21;68.28
28312;BME280;15572;48.810;9.148;2023-01-29T13:48:53;99051.44;;;3.10;68.89
28312;BME280;15572;48.810;9.148;2023-01-29T13:53:55;99059.06;;;2.93;69.17
28312;BME280;15572;48.810;9.148;2023-01-29T13:58:53;99056.50;;;2.92;68.82
28312;BME280;15572;48.810;9.148;2023-01-29T14:03:52;99056.69;;;2.68;70.61
28312;BME280;15572;48.810;9.148;2023-01-29T14:08:52;99054.41;;;2.64;70.78
28312;BME280;15572;48.810;9.148;2023-01-29T14:13:49;99041.47;;;2.37;71.78
28312;BME280;15572;48.810;9.148;2023-01-29T14:18:48;99047.47;;;2.29;73.05
28312;BME280;15572;48.810;9.148;2023-01-29T14:23:51;99049.03;;;2.21;73.30
28312;BME280;15572;48.810;9.148;2023-01-29T14:28:55;99045.88;;;2.16;74.12
28312;BME280;15572;48.810;9.148;2023-01-29T14:33:52;99038.25;;;2.00;73.89
28312;BME280;15572;48.810;9.148;2023-01-29T14:38:58;99035.59;;;1.89;75.24
28312;BME280;15572;48.810;9.148;2023-01-29T14:49:50;99038.13;;;1.68;76.77
28312;BME280;15572;48.810;9.148;2023-01-29T14:54:49;99036.44;;;1.67;76.94
28312;BME280;15572;48.810;9.148;2023-01-29T14:59:52;99028.78;;;1.62;77.54
28312;BME280;15572;48.810;9.148;2023-01-29T15:04:53;99031.44;;;1.62;78.00
28312;BME280;15572;48.810;9.148;2023-01-29T15:09:57;99041.53;;;1.70;78.19
28312;BME280;15572;48.810;9.148;2023-01-29T15:15:04;99040.81;;;1.68;78.10
28312;BME280;15572;48.810;9.148;2023-01-29T15:20:26;99042.50;;;1.58;78.63
28312;BME280;15572;48.810;9.148;2023-01-29T15:25:26;99041.91;;;1.54;77.97
28312;BME280;15572;48.810;9.148;2023-01-29T15:30:31;99032.66;;;1.47;78.60
28312;BME280;15572;48.810;9.148;2023-01-29T15:35:30;99021.84;;;1.38;79.32
28312;BME280;15572;48.810;9.148;2023-01-29T15:40:31;99027.16;;;1.26;80.70
28312;BME280;15572;48.810;9.148;2023-01-29T15:45:28;99025.06;;;1.19;81.81
28312;BME280;15572;48.810;9.148;2023-01-29T15:50:25;99029.91;;;1.14;82.19
28312;BME280;15572;48.810;9.148;2023-01-29T15:55:23;99038.56;;;1.17;82.91
28312;BME280;15572;48.810;9.148;2023-01-29T16:00:24;99039.69;;;1.02;84.92
28312;BME280;15572;48.810;9.148;2023-01-29T16:05:24;99032.97;;;0.85;86.99
28312;BME280;15572;48.810;9.148;2023-01-29T16:10:23;99034.88;;;0.72;88.67
28312;BME280;15572;48.810;9.148;2023-01-29T16:15:27;99026.81;;;0.61;90.49
28312;BME280;15572;48.810;9.148;2023-01-29T16:20:35;99029.88;;;0.44;91.68
28312;BME280;15572;48.810;9.148;2023-01-29T16:25:33;99020.34;;;0.29;93.31
28312;BME280;15572;48.810;9.148;2023-01-29T16:30:34;99028.00;;;0.10;94.32
28312;BME280;15572;48.810;9.148;2023-01-29T16:35:30;99030.69;;;-0.03;95.66
28312;BME280;15572;48.810;9.148;2023-01-29T16:40:29;99039.88;;;-0.20;96.26
28312;BME280;15572;48.810;9.148;2023-01-29T16:45:27;99045.22;;;-0.32;98.63
28312;BME280;15572;48.810;9.148;2023-01-29T16:50:30;99046.81;;;-0.43;100.00
28312;BME280;15572;48.810;9.148;2023-01-29T16:55:36;99050.44;;;-0.56;100.00
28312;BME280;15572;48.810;9.148;2023-01-29T17:00:34;99056.09;;;-0.61;100.00
28312;BME280;15572;48.810;9.148;2023-01-29T17:05:34;99057.56;;;-0.69;100.00
28312;BME280;15572;48.810;9.148;2023-01-29T17:10:32;99064.69;;;-0.82;100.00
28312;BME280;15572;48.810;9.148;2023-01-29T17:15:33;99062.31;;;-1.00;100.00
28312;BME280;15572;48.810;9.148;2023-01-29T17:20:30;99056.78;;;-1.09;100.00
28312;BME280;15572;48.810;9.148;2023-01-29T17:25:28;99049.28;;;-1.17;100.00
28312;BME280;15572;48.810;9.148;2023-01-29T17:30:27;99047.63;;;-1.18;100.00
28312;BME280;15572;48.810;9.148;2023-01-29T17:35:26;99036.78;;;-1.15;100.00
28312;BME280;15572;48.810;9.148;2023-01-29T17:40:30;99033.13;;;-1.27;100.00
28312;BME280;15572;48.810;9.148;2023-01-29T17:45:28;99032.66;;;-1.33;100.00
28312;BME280;15572;48.810;9.148;2023-01-29T17:50:27;99051.03;;;-1.43;100.00
28312;BME280;15572;48.810;9.148;2023-01-29T17:55:25;99036.91;;;-1.43;100.00
28312;BME280;15572;48.810;9.148;2023-01-29T18:00:23;99033.69;;;-1.48;100.00
28312;BME280;15572;48.810;9.148;2023-01-29T18:05:20;99030.59;;;-1.55;100.00
28312;BME280;15572;48.810;9.148;2023-01-29T18:10:18;99037.50;;;-1.52;100.00
28312;BME280;15572;48.810;9.148;2023-01-29T18:15:15;99027.09;;;-1.55;100.00
28312;BME280;15572;48.810;9.148;2023-01-29T18:20:18;99036.19;;;-1.59;100.00
28312;BME280;15572;48.810;9.148;2023-01-29T18:25:15;99030.47;;;-1.66;100.00
28312;BME280;15572;48.810;9.148;2023-01-29T18:30:12;99024.59;;;-1.71;100.00
28312;BME280;15572;48.810;9.148;2023-01-29T18:35:09;99026.50;;;-1.73;100.00
28312;BME280;15572;48.810;9.148;2023-01-29T18:40:08;99024.53;;;-1.84;100.00
28312;BME280;15572;48.810;9.148;2023-01-29T18:45:07;99026.81;;;-1.92;100.00
28312;BME280;15572;48.810;9.148;2023-01-29T18:50:06;99022.56;;;-1.94;100.00
28312;BME280;15572;48.810;9.148;2023-01-29T18:55:03;99020.94;;;-1.97;100.00
28312;BME280;15572;48.810;9.148;2023-01-29T19:00:01;99028.91;;;-1.97;100.00
28312;BME280;15572;48.810;9.148;2023-01-29T19:04:57;99025.41;;;-1.97;100.00
28312;BME280;15572;48.810;9.148;2023-01-29T19:09:54;99037.25;;;-2.03;100.00
28312;BME280;15572;48.810;9.148;2023-01-29T19:14:59;99041.38;;;-2.12;100.00
28312;BME280;15572;48.810;9.148;2023-01-29T19:20:12;99039.66;;;-2.13;100.00
28312;BME280;15572;48.810;9.148;2023-01-29T19:25:09;99051.13;;;-2.12;100.00
28312;BME280;15572;48.810;9.148;2023-01-29T19:30:10;99051.50;;;-2.18;100.00
28312;BME280;15572;48.810;9.148;2023-01-29T19:35:08;99056.16;;;-2.22;100.00
28312;BME280;15572;48.810;9.148;2023-01-29T19:40:06;99058.16;;;-2.25;100.00
28312;BME280;15572;48.810;9.148;2023-01-29T19:45:04;99057.50;;;-2.29;100.00
28312;BME280;15572;48.810;9.148;2023-01-29T19:50:01;99058.63;;;-2.33;100.00
28312;BME280;15572;48.810;9.148;2023-01-29T19:54:57;99054.38;;;-2.35;100.00
28312;BME280;15572;48.810;9.148;2023-01-29T19:59:56;99054.56;;;-2.38;100.00
28312;BME280;15572;48.810;9.148;2023-01-29T20:04:53;99049.47;;;-2.41;100.00
28312;BME280;15572;48.810;9.148;2023-01-29T20:09:49;99046.25;;;-2.46;100.00
28312;BME280;15572;48.810;9.148;2023-01-29T20:14:46;99044.69;;;-2.50;100.00
28312;BME280;15572;48.810;9.148;2023-01-29T20:19:44;99045.75;;;-2.53;100.00
28312;BME280;15572;48.810;9.148;2023-01-29T20:24:41;99041.69;;;-2.59;100.00
28312;BME280;15572;48.810;9.148;2023-01-29T20:29:37;99040.47;;;-2.67;100.00
28312;BME280;15572;48.810;9.148;2023-01-29T20:34:34;99024.72;;;-2.70;100.00
28312;BME280;15572;48.810;9.148;2023-01-29T20:39:32;99015.25;;;-2.74;100.00
28312;BME280;15572;48.810;9.148;2023-01-29T20:44:29;99014.69;;;-2.79;100.00
28312;BME280;15572;48.810;9.148;2023-01-29T20:49:25;98997.53;;;-2.88;100.00
28312;BME280;15572;48.810;9.148;2023-01-29T20:54:22;98988.84;;;-2.90;100.00
28312;BME280;15572;48.810;9.148;2023-01-29T20:59:20;98982.97;;;-2.95;100.00
28312;BME280;15572;48.810;9.148;2023-01-29T21:04:17;98973.22;;;-2.94;100.00
28312;BME280;15572;48.810;9.148;2023-01-29T21:09:13;98977.56;;;-2.93;100.00
28312;BME280;15572;48.810;9.148;2023-01-29T21:14:09;98972.09;;;-2.90;100.00
28312;BME280;15572;48.810;9.148;2023-01-29T21:19:08;98969.59;;;-2.93;100.00
28312;BME280;15572;48.810;9.148;2023-01-29T21:24:05;98979.00;;;-2.88;100.00
28312;BME280;15572;48.810;9.148;2023-01-29T21:29:03;98993.56;;;-2.81;100.00
28312;BME280;15572;48.810;9.148;2023-01-29T21:34:03;98983.44;;;-2.88;100.00
28312;BME280;15572;48.810;9.148;2023-01-29T21:39:01;98993.88;;;-2.85;100.00
28312;BME280;15572;48.810;9.148;2023-01-29T21:44:10;98988.56;;;-2.85;100.00
28312;BME280;15572;48.810;9.148;2023-01-29T21:49:07;98997.47;;;-2.86;100.00
28312;BME280;15572;48.810;9.148;2023-01-29T21:54:06;98990.34;;;-2.86;100.00
28312;BME280;15572;48.810;9.148;2023-01-29T21:59:02;98975.13;;;-2.97;100.00
28312;BME280;15572;48.810;9.148;2023-01-29T22:03:59;98976.41;;;-3.04;100.00
28312;BME280;15572;48.810;9.148;2023-01-29T22:08:55;98975.47;;;-3.17;100.00
28312;BME280;15572;48.810;9.148;2023-01-29T22:13:53;98984.22;;;-3.30;100.00
28312;BME280;15572;48.810;9.148;2023-01-29T22:18:50;98980.91;;;-3.34;100.00
28312;BME280;15572;48.810;9.148;2023-01-29T22:23:47;98981.00;;;-3.35;100.00
28312;BME280;15572;48.810;9.148;2023-01-29T22:28:44;98961.88;;;-3.41;100.00
28312;BME280;15572;48.810;9.148;2023-01-29T22:33:43;98978.56;;;-3.38;100.00
28312;BME280;15572;48.810;9.148;2023-01-29T22:38:40;98977.78;;;-3.41;100.00
28312;BME280;15572;48.810;9.148;2023-01-29T22:43:38;98958.75;;;-3.47;100.00
28312;BME280;15572;48.810;9.148;2023-01-29T22:48:35;98944.50;;;-3.45;100.00
28312;BME280;15572;48.810;9.148;2023-01-29T22:53:37;98926.16;;;-3.48;100.00
28312;BME280;15572;48.810;9.148;2023-01-29T22:58:35;98908.91;;;-3.55;100.00
28312;BME280;15572;48.810;9.148;2023-01-29T23:03:33;98892.47;;;-3.60;100.00
28312;BME280;15572;48.810;9.148;2023-01-29T23:08:34;98876.75;;;-3.63;100.00
28312;BME280;15572;48.810;9.148;2023-01-29T23:18:34;98886.97;;;-3.57;100.00
28312;BME280;15572;48.810;9.148;2023-01-29T23:23:35;98880.81;;;-3.57;100.00
28312;BME280;15572;48.810;9.148;2023-01-29T23:28:32;98868.16;;;-3.52;100.00
28312;BME280;15572;48.810;9.148;2023-01-29T23:33:28;98859.97;;;-3.48;100.00
28312;BME280;15572;48.810;9.148;2023-01-29T23:38:25;98867.91;;;-3.48;100.00
28312;BME280;15572;48.810;9.148;2023-01-29T23:43:23;98872.91;;;-3.43;100.00
28312;BME280;15572;48.810;9.148;2023-01-29T23:48:19;98853.72;;;-3.32;100.00
28312;BME280;15572;48.810;9.148;2023-01-29T23:53:16;98851.63;;;-3.27;100.00
28312;BME280;15572;48.810;9.148;2023-01-29T23:58:13;98847.00;;;-3.24;100.00
